Pagrindinis puslapis
METAR-TAF:

METAR-TAF

Oro uostai :

Adana, Turkija

platuma: 36-59N, ilguma: 035-18E, Aukštis: 20 m

Dabartinis oras

Ataskaita buvo paskelbta 39 minutes, ne 10:20 UTC
Vėjas 3 kt iš Rytų, svyruoja nuo Šiaurės Rytų ir Pietryčių
Temperatūra 22°C
Drėgmė 50%
Slėgis 1016 hPa
Matomumas 10 km arba daugiau
Išsisklaidę debesys ne aukštis 3500 ft

METAR: LTAF 281020Z 09003KT 050V130 9999 SCT035 22/11 Q1016 NOSIG RMK RWY23 00000KT

Laikas: 13:59 (10:59 UTC)


TAF: trūkstamas

Orai ataskaitas ir orų prognozės (METAR, TAF).

turimą stotys yra geltonos ir raudonos taškus žemėlapyje.

Perkelti pele per norėdami pamatyti stoties vardą.

Tada spustelėkite, norėdami matyti oro stebėjimo ir prognozės.

Norėdami pakeisti žemėlapį: spustelėkite ant žalios mygtukų su juodo kryžiaus žemyn,; žalią mygtuką su brūkšneliu, jei norite nutolinti; arba žalių rodyklių gretimoms žemėlapius.


METAR-TAF: